Time;durP1;ratioP1;P1;durP2;ratioP2;P2;SDS_P1;SDS_P2;PMS_P1;PMS_P2;Temp;Humidity;BMP_temperature;BMP_pressure;BME280_temperature;BME280_humidity;BME280_pressure;Samples;Min_cycle;Max_cycle;Signal;HPM_P1;HPM_P2
2023/10/15 00:02:24;;;;;;;11.38;2.75;;;;;;;15.06;54.66;99625.94;5038662;28;20407;-83
2023/10/15 00:05:20;;;;;;;10.65;2.60;;;;;;;15.44;54.57;99625.16;5041289;28;20035;-82
2023/10/15 00:08:04;;;;;;;8.93;2.50;;;;;;;15.36;54.28;99630.72;5037715;28;20121;-82
2023/10/15 00:10:49;;;;;;;5.47;2.58;;;;;;;14.56;55.46;99640.50;5043630;28;20048;-82
2023/10/15 00:13:33;;;;;;;10.45;2.22;;;;;;;14.28;56.10;99646.81;5044101;28;20043;-81
2023/10/15 00:16:21;;;;;;;6.30;2.10;;;;;;;13.83;56.74;99640.31;5047413;28;20099;-82
2023/10/15 00:19:11;;;;;;;9.15;2.15;;;;;;;13.54;56.73;99658.09;5014777;28;20041;-82
2023/10/15 00:21:55;;;;;;;6.28;2.40;;;;;;;13.78;56.72;99652.47;5028565;28;20052;-81
2023/10/15 00:24:40;;;;;;;5.13;1.92;;;;;;;13.76;56.11;99639.50;5043021;28;20052;-83
2023/10/15 00:27:24;;;;;;;12.95;2.85;;;;;;;12.97;57.24;99647.72;5030991;28;20410;-83
2023/10/15 00:30:19;;;;;;;5.45;2.65;;;;;;;13.51;56.17;99652.41;5043509;28;20091;-83
2023/10/15 00:33:06;;;;;;;10.02;2.20;;;;;;;13.87;55.37;99655.72;5032265;28;20129;-84
2023/10/15 00:35:54;;;;;;;9.45;2.20;;;;;;;14.50;54.50;99649.22;5043314;28;20410;-85
2023/10/15 00:38:38;;;;;;;13.80;2.63;;;;;;;14.07;55.61;99661.84;5039116;28;20087;-83
2023/10/15 00:41:22;;;;;;;7.93;2.20;;;;;;;14.83;54.16;99672.97;5018362;28;20088;-85
2023/10/15 00:44:09;;;;;;;10.77;2.13;;;;;;;14.35;54.87;99666.13;5015753;28;20125;-85
2023/10/15 00:46:56;;;;;;;6.35;2.17;;;;;;;14.54;54.57;99666.28;5027872;28;20117;-86
2023/10/15 00:49:41;;;;;;;10.00;2.38;;;;;;;14.93;53.42;99661.19;5045664;28;20124;-85
2023/10/15 00:52:29;;;;;;;9.55;2.47;;;;;;;14.65;54.34;99675.44;5022700;28;20090;-84
2023/10/15 00:55:17;;;;;;;13.35;2.42;;;;;;;14.97;53.59;99676.44;5037647;28;20108;-84
2023/10/15 00:58:08;;;;;;;7.80;2.25;;;;;;;14.75;54.27;99677.69;5041511;28;20048;-86
2023/10/15 01:00:53;;;;;;;17.23;2.70;;;;;;;14.93;53.44;99677.84;5041116;28;20041;-84
2023/10/15 01:03:38;;;;;;;13.68;2.58;;;;;;;14.38;53.96;99692.13;5048814;28;20056;-86
2023/10/15 01:06:30;;;;;;;7.05;2.25;;;;;;;14.66;53.43;99680.50;5048946;28;20048;-84
2023/10/15 01:15:07;;;;;;;8.55;2.35;;;;;;;14.87;53.73;99691.88;5049853;28;20071;-85
2023/10/15 01:18:00;;;;;;;13.82;3.22;;;;;;;14.66;54.37;99699.00;5053462;28;20068;-85
2023/10/15 01:20:44;;;;;;;11.68;3.47;;;;;;;15.20;53.73;99701.56;5043428;28;20397;-84
2023/10/15 01:23:28;;;;;;;11.15;3.00;;;;;;;15.20;53.68;99698.94;5042030;28;20075;-85
2023/10/15 01:26:23;;;;;;;7.55;2.70;;;;;;;14.79;53.59;99700.84;5049076;28;20083;-85
2023/10/15 01:29:07;;;;;;;8.00;2.67;;;;;;;15.15;53.31;99698.75;5055809;28;20044;-86
2023/10/15 01:31:51;;;;;;;7.82;2.53;;;;;;;15.78;52.70;99713.13;5043358;28;20107;-86
2023/10/15 01:34:41;;;;;;;9.05;2.55;;;;;;;15.17;53.08;99706.44;5048339;28;20114;-84
2023/10/15 01:37:25;;;;;;;10.82;3.03;;;;;;;15.31;52.62;99717.78;5045724;28;20051;-84
2023/10/15 01:42:54;;;;;;;7.47;2.42;;;;;;;15.06;52.52;99710.56;5042933;28;20071;-85
2023/10/15 01:45:41;;;;;;;6.38;2.47;;;;;;;14.52;52.76;99729.91;5049488;28;20071;-82
2023/10/15 01:48:25;;;;;;;7.00;2.60;;;;;;;14.79;52.79;99711.41;5041622;28;20482;-83
2023/10/15 01:51:09;;;;;;;11.75;2.58;;;;;;;14.74;52.40;99713.88;5055023;28;20055;-84
2023/10/15 01:53:56;;;;;;;7.45;2.42;;;;;;;14.34;52.95;99714.66;5059968;28;20052;-84
2023/10/15 01:56:44;;;;;;;8.77;2.78;;;;;;;14.85;51.83;99715.06;5056014;28;20044;-83
2023/10/15 01:59:29;;;;;;;7.50;2.80;;;;;;;14.28;52.89;99729.50;5046185;28;20386;-83
2023/10/15 02:02:17;;;;;;;9.60;2.63;;;;;;;15.00;52.33;99728.06;5055707;28;20052;-85
2023/10/15 02:05:02;;;;;;;11.93;2.72;;;;;;;15.18;51.81;99724.78;5047173;28;20044;-87
2023/10/15 02:07:46;;;;;;;9.88;3.53;;;;;;;14.61;51.84;99716.47;5041935;28;20091;-85
2023/10/15 02:10:31;;;;;;;8.18;3.03;;;;;;;14.85;52.01;99723.81;5038850;28;20094;-86
2023/10/15 02:13:17;;;;;;;6.72;2.88;;;;;;;14.76;52.27;99706.53;5047288;28;20047;-87
2023/10/15 02:16:07;;;;;;;9.05;2.50;;;;;;;14.32;52.41;99721.97;5036506;28;20087;-88
2023/10/15 02:18:51;;;;;;;10.30;2.42;;;;;;;14.87;52.02;99715.69;5039407;28;20505;-86
2023/10/15 02:21:49;;;;;;;14.48;2.92;;;;;;;14.94;52.17;99719.13;5039041;28;20101;-86
2023/10/15 02:24:34;;;;;;;6.47;2.55;;;;;;;14.73;52.37;99728.09;5039115;28;20095;-84
2023/10/15 02:27:30;;;;;;;6.45;2.40;;;;;;;15.06;52.09;99723.78;5037424;28;20052;-86
2023/10/15 02:30:15;;;;;;;10.63;2.30;;;;;;;14.91;52.47;99743.31;5039549;28;20056;-84
2023/10/15 02:33:01;;;;;;;5.70;1.92;;;;;;;14.57;53.56;99745.16;5041573;28;20049;-87
2023/10/15 02:35:48;;;;;;;5.40;2.33;;;;;;;14.41;53.64;99735.78;5042147;28;20102;-84
2023/10/15 02:38:37;;;;;;;11.75;3.05;;;;;;;14.22;54.00;99729.47;5038775;28;20058;-86
2023/10/15 02:41:40;;;;;;;7.38;2.10;;;;;;;13.80;54.81;99722.50;5037668;28;20044;-85
2023/10/15 02:44:25;;;;;;;6.47;2.35;;;;;;;14.00;54.79;99738.38;5039333;28;20096;-84
2023/10/15 02:50:16;;;;;;;5.95;2.40;;;;;;;13.71;55.48;99737.69;5046919;28;20052;-87
2023/10/15 02:53:04;;;;;;;12.50;2.33;;;;;;;13.87;55.51;99734.88;5030524;28;20045;-88
2023/10/15 02:55:49;;;;;;;13.27;2.33;;;;;;;13.92;55.67;99733.28;5052404;28;20135;-85
2023/10/15 02:58:33;;;;;;;11.32;2.40;;;;;;;13.70;55.52;99741.34;5057205;28;20095;-86
2023/10/15 03:01:19;;;;;;;6.28;2.08;;;;;;;13.79;55.71;99735.88;5058271;28;20052;-86
2023/10/15 03:04:07;;;;;;;9.05;2.90;;;;;;;13.88;55.57;99747.06;5045919;28;20044;-85
2023/10/15 03:06:51;;;;;;;9.38;2.53;;;;;;;12.94;56.72;99753.47;5031612;28;20045;-86
2023/10/15 03:09:36;;;;;;;8.13;2.63;;;;;;;12.77;57.64;99746.88;5057704;28;20566;-85
2023/10/15 03:12:19;;;;;;;7.07;2.20;;;;;;;12.27;58.13;99751.13;5058599;28;20048;-87
2023/10/15 03:15:07;;;;;;;8.35;2.42;;;;;;;12.47;58.24;99739.16;5058908;28;20060;-86
2023/10/15 03:17:51;;;;;;;7.05;1.98;;;;;;;12.63;57.96;99733.63;5049169;28;20095;-85
2023/10/15 03:20:43;;;;;;;8.30;2.47;;;;;;;13.04;57.18;99736.53;5045817;28;20044;-85
2023/10/15 03:23:27;;;;;;;11.95;2.50;;;;;;;12.89;57.30;99745.34;5038422;28;20103;-86
2023/10/15 03:26:17;;;;;;;11.43;2.72;;;;;;;13.83;55.82;99751.13;5040760;28;20120;-87
2023/10/15 03:29:09;;;;;;;5.78;2.45;;;;;;;14.12;55.44;99758.91;5054268;28;20051;-85
2023/10/15 03:32:12;;;;;;;11.93;2.55;;;;;;;13.88;55.42;99752.34;5055992;28;20039;-84
2023/10/15 03:35:08;;;;;;;6.57;2.15;;;;;;;13.91;55.29;99757.22;5050441;28;20059;-85
2023/10/15 03:37:59;;;;;;;7.60;2.70;;;;;;;13.16;56.19;99763.16;5059748;28;20052;-86
2023/10/15 03:40:47;;;;;;;12.23;3.22;;;;;;;13.70;55.02;99756.34;5041578;28;20049;-88
2023/10/15 03:43:35;;;;;;;7.57;2.28;;;;;;;13.76;55.08;99760.03;5037036;28;20048;-86
2023/10/15 03:46:19;;;;;;;13.23;2.20;;;;;;;13.28;55.41;99775.59;5048796;28;20090;-86
2023/10/15 03:49:07;;;;;;;5.65;2.05;;;;;;;12.63;56.59;99786.28;5058886;28;20041;-86
2023/10/15 03:51:53;;;;;;;11.95;2.25;;;;;;;12.95;55.65;99778.81;5055859;28;20071;-86
2023/10/15 03:54:37;;;;;;;5.70;2.00;;;;;;;13.13;55.61;99767.81;5026367;28;20095;-86
2023/10/15 03:57:22;;;;;;;10.93;2.10;;;;;;;13.05;55.86;99777.69;5056155;28;20043;-84
2023/10/15 04:00:16;;;;;;;7.75;2.63;;;;;;;13.20;55.48;99783.69;5050929;28;20044;-85
2023/10/15 04:03:08;;;;;;;7.47;2.20;;;;;;;13.77;54.53;99794.16;5040665;28;20097;-83
2023/10/15 04:05:53;;;;;;;6.90;2.22;;;;;;;13.07;55.39;99800.22;5041991;28;20044;-84
2023/10/15 04:08:37;;;;;;;6.38;2.13;;;;;;;12.89;55.59;99779.59;5039370;28;20040;-85
2023/10/15 04:11:29;;;;;;;10.88;2.40;;;;;;;12.49;56.00;99792.44;5046979;28;20064;-86
2023/10/15 04:14:26;;;;;;;6.18;2.25;;;;;;;12.92;55.85;99794.22;5046272;28;20052;-85
2023/10/15 04:17:15;;;;;;;8.38;2.33;;;;;;;12.46;56.18;99798.88;5047733;28;20167;-85
2023/10/15 04:19:59;;;;;;;8.57;2.15;;;;;;;12.82;55.87;99800.63;5045916;28;20049;-86
2023/10/15 04:22:51;;;;;;;9.07;2.10;;;;;;;12.60;55.59;99810.38;5045462;28;20052;-85
2023/10/15 04:25:36;;;;;;;6.28;2.15;;;;;;;12.68;55.40;99806.81;5045794;28;20426;-83
2023/10/15 04:28:20;;;;;;;6.97;1.77;;;;;;;12.92;55.05;99813.47;5055066;28;20044;-84
2023/10/15 04:31:22;;;;;;;8.73;2.10;;;;;;;12.42;55.19;99809.00;5039624;28;20087;-84
2023/10/15 04:34:09;;;;;;;9.38;2.42;;;;;;;12.89;55.22;99808.59;5034234;28;20064;-83
2023/10/15 04:36:57;;;;;;;7.40;2.40;;;;;;;13.06;54.93;99824.91;5033862;28;20387;-84
2023/10/15 04:39:51;;;;;;;9.85;2.78;;;;;;;13.16;54.43;99815.88;5034440;28;20132;-84
2023/10/15 04:42:43;;;;;;;4.65;2.05;;;;;;;13.14;54.37;99824.78;5046194;28;20113;-86
2023/10/15 04:45:40;;;;;;;4.47;1.95;;;;;;;13.33;54.26;99826.94;5043624;28;20044;-84
2023/10/15 04:48:27;;;;;;;8.43;2.30;;;;;;;13.05;54.23;99828.56;5040450;28;20036;-82
2023/10/15 04:51:12;;;;;;;8.25;2.15;;;;;;;13.29;54.22;99835.22;5041595;28;20437;-82
2023/10/15 04:53:57;;;;;;;7.80;2.10;;;;;;;12.54;55.43;99832.19;5054476;28;20043;-83
2023/10/15 04:56:42;;;;;;;6.78;1.90;;;;;;;12.40;55.45;99825.97;5039468;28;20063;-84
2023/10/15 04:59:26;;;;;;;7.68;2.33;;;;;;;12.00;56.42;99842.13;5045707;28;20044;-85
2023/10/15 05:02:10;;;;;;;11.00;2.50;;;;;;;11.49;57.42;99834.94;5046358;28;20132;-85
2023/10/15 05:04:54;;;;;;;6.75;1.95;;;;;;;11.70;56.91;99821.91;5033754;28;20465;-83
2023/10/15 05:07:38;;;;;;;9.38;2.08;;;;;;;12.35;55.82;99823.88;5033335;28;20060;-85
2023/10/15 05:10:23;;;;;;;8.32;2.28;;;;;;;11.81;55.98;99833.78;5044186;28;20090;-87
2023/10/15 05:13:07;;;;;;;10.40;2.28;;;;;;;12.22;56.12;99834.28;5041133;28;20032;-83
2023/10/15 05:15:52;;;;;;;15.23;2.20;;;;;;;11.92;56.77;99840.41;5038699;28;20402;-84
2023/10/15 05:18:36;;;;;;;7.75;2.25;;;;;;;12.07;56.47;99834.31;5045873;28;20083;-85
2023/10/15 05:21:19;;;;;;;12.75;2.55;;;;;;;12.11;56.08;99854.81;5048714;28;20094;-84
2023/10/15 05:24:04;;;;;;;8.20;2.08;;;;;;;11.85;56.02;99848.19;5039012;28;20048;-85
2023/10/15 05:26:48;;;;;;;5.90;2.17;;;;;;;11.99;55.95;99837.84;5047628;28;20124;-84
2023/10/15 05:29:32;;;;;;;7.75;2.10;;;;;;;12.01;56.07;99854.31;5052515;28;20036;-85
2023/10/15 05:32:16;;;;;;;6.53;1.90;;;;;;;12.06;55.88;99849.28;5053807;28;20040;-84
2023/10/15 05:35:01;;;;;;;12.80;2.67;;;;;;;12.24;55.43;99861.25;5037910;28;20398;-86
2023/10/15 05:37:45;;;;;;;6.03;1.77;;;;;;;11.02;56.83;99850.84;5036087;28;20052;-87
2023/10/15 05:40:29;;;;;;;6.95;1.95;;;;;;;11.74;56.12;99859.16;5041936;28;20052;-84
2023/10/15 05:43:14;;;;;;;9.48;2.40;;;;;;;11.49;56.23;99843.66;5027793;28;20044;-84
2023/10/15 05:45:57;;;;;;;7.95;2.03;;;;;;;11.84;55.51;99849.19;5050586;28;20111;-84
2023/10/15 05:48:41;;;;;;;6.30;2.65;;;;;;;12.33;54.73;99857.50;5055275;28;20082;-84
2023/10/15 05:51:27;;;;;;;7.68;2.13;;;;;;;11.50;55.08;99836.63;5037311;28;20048;-84
2023/10/15 05:54:12;;;;;;;9.48;2.47;;;;;;;11.34;56.21;99840.19;5037791;28;20522;-86
2023/10/15 05:56:56;;;;;;;5.88;2.05;;;;;;;11.80;55.17;99845.31;5045049;28;20040;-83
2023/10/15 05:59:40;;;;;;;9.48;2.50;;;;;;;11.26;55.96;99860.31;5036809;28;20072;-85
2023/10/15 06:02:24;;;;;;;6.45;2.20;;;;;;;10.54;57.00;99858.91;5046664;28;20040;-85
2023/10/15 06:05:08;;;;;;;4.28;2.00;;;;;;;11.43;55.50;99865.44;5045547;28;20129;-84
2023/10/15 06:07:54;;;;;;;5.72;2.47;;;;;;;10.84;56.41;99853.78;5050729;28;20068;-84
2023/10/15 06:10:38;;;;;;;6.45;2.20;;;;;;;11.11;55.69;99851.59;5044805;28;20463;-83
2023/10/15 06:13:22;;;;;;;7.13;2.38;;;;;;;10.60;56.46;99846.91;5049205;28;20033;-84
2023/10/15 06:16:06;;;;;;;9.30;1.98;;;;;;;11.26;55.45;99860.31;5042894;28;20445;-83
2023/10/15 06:18:50;;;;;;;8.02;2.40;;;;;;;11.14;55.33;99848.59;5054588;28;20052;-85
2023/10/15 06:21:34;;;;;;;7.38;1.90;;;;;;;11.20;55.26;99881.25;5048534;28;20045;-84
2023/10/15 06:24:18;;;;;;;4.82;2.28;;;;;;;11.00;54.78;99874.69;5044177;28;20049;-86
2023/10/15 06:27:04;;;;;;;5.55;2.28;;;;;;;10.63;54.95;99865.75;5047822;28;20048;-85
2023/10/15 06:29:48;;;;;;;13.13;1.92;;;;;;;11.04;54.43;99879.56;5039730;28;20044;-84
2023/10/15 06:32:32;;;;;;;6.90;2.10;;;;;;;10.45;55.41;99880.97;5031696;28;20108;-85
2023/10/15 06:35:19;;;;;;;4.82;1.70;;;;;;;11.31;54.55;99878.19;5040292;28;20044;-84
2023/10/15 06:38:03;;;;;;;10.15;1.95;;;;;;;11.22;53.55;99866.94;5048537;28;20060;-85
2023/10/15 06:40:47;;;;;;;8.35;1.98;;;;;;;10.95;53.76;99871.75;5042724;28;20040;-85
2023/10/15 06:43:31;;;;;;;8.70;2.35;;;;;;;10.62;54.31;99871.16;5046139;28;20126;-86
2023/10/15 06:46:16;;;;;;;5.55;1.90;;;;;;;10.84;54.13;99865.09;5044888;28;20041;-84
2023/10/15 06:49:00;;;;;;;5.65;1.77;;;;;;;11.51;53.77;99873.22;5039421;28;20128;-83
2023/10/15 06:51:44;;;;;;;6.15;1.90;;;;;;;11.84;52.65;99859.72;5048378;28;20095;-84
2023/10/15 06:54:28;;;;;;;2.17;1.60;;;;;;;11.94;51.72;99864.72;5047857;28;20084;-83
2023/10/15 06:57:16;;;;;;;4.18;1.83;;;;;;;11.92;51.86;99879.03;5039788;28;20103;-85
2023/10/15 07:00:00;;;;;;;6.15;2.25;;;;;;;12.22;50.92;99877.22;5042557;28;20510;-85
2023/10/15 07:02:45;;;;;;;7.57;2.00;;;;;;;12.02;51.26;99878.78;5045036;28;20068;-83
2023/10/15 07:05:29;;;;;;;9.95;2.15;;;;;;;12.27;50.52;99880.09;5045418;28;20117;-84
2023/10/15 07:08:13;;;;;;;4.35;1.73;;;;;;;11.23;51.43;99868.56;5043687;28;20537;-83
2023/10/15 07:10:59;;;;;;;4.85;1.73;;;;;;;12.05;50.99;99884.50;5045357;28;20076;-84
2023/10/15 07:13:43;;;;;;;10.98;2.00;;;;;;;12.23;50.64;99894.63;5047807;28;20063;-84
2023/10/15 07:16:28;;;;;;;6.18;2.00;;;;;;;11.97;50.63;99909.06;5019038;28;20045;-84
2023/10/15 07:19:12;;;;;;;5.35;1.92;;;;;;;12.40;50.15;99905.78;5051157;28;20111;-86
2023/10/15 07:21:56;;;;;;;3.40;1.80;;;;;;;12.04;50.48;99917.09;5052623;28;20048;-86
2023/10/15 07:24:40;;;;;;;8.85;2.20;;;;;;;12.30;49.89;99902.63;5043294;28;20044;-84
2023/10/15 07:27:24;;;;;;;9.50;1.95;;;;;;;11.88;50.56;99911.97;5044220;28;20119;-85
2023/10/15 07:30:16;;;;;;;4.82;1.80;;;;;;;12.36;50.43;99927.38;5043406;28;20106;-84
2023/10/15 07:33:01;;;;;;;5.20;1.70;;;;;;;12.49;50.08;99940.72;5035072;28;20072;-85
2023/10/15 07:35:46;;;;;;;3.53;2.10;;;;;;;13.00;49.06;99921.41;5046710;28;20044;-87
2023/10/15 07:38:30;;;;;;;5.72;2.00;;;;;;;13.17;49.19;99926.41;5038089;28;20064;-84
2023/10/15 07:41:14;;;;;;;3.47;1.80;;;;;;;13.32;48.88;99934.25;5040583;28;20048;-84
2023/10/15 07:43:58;;;;;;;7.60;1.60;;;;;;;12.95;49.23;99941.41;5037962;28;20180;-82
2023/10/15 07:46:42;;;;;;;4.97;1.92;;;;;;;13.14;49.06;99932.03;5042098;28;20080;-85
2023/10/15 07:49:28;;;;;;;4.00;1.55;;;;;;;12.41;49.66;99938.19;5038701;28;20115;-86
2023/10/15 07:52:12;;;;;;;7.22;1.80;;;;;;;12.77;50.44;99941.81;5043715;28;20102;-84
2023/10/15 07:54:55;;;;;;;6.22;2.15;;;;;;;13.02;49.98;99946.75;5039985;28;20079;-83
2023/10/15 07:57:39;;;;;;;2.38;1.60;;;;;;;12.83;49.78;99936.63;5042606;28;20103;-85
2023/10/15 08:00:23;;;;;;;4.85;1.70;;;;;;;13.31;48.84;99950.22;5038349;28;20104;-84
2023/10/15 08:03:07;;;;;;;3.83;1.80;;;;;;;13.69;48.54;99971.88;5046835;28;20040;-85
2023/10/15 08:05:52;;;;;;;5.00;1.65;;;;;;;13.79;48.34;99962.81;5044686;28;20577;-89
2023/10/15 08:08:36;;;;;;;6.03;1.95;;;;;;;14.18;48.27;99955.31;5046007;28;20090;-86
2023/10/15 08:11:20;;;;;;;4.35;1.85;;;;;;;13.64;48.84;99968.97;5033626;28;20109;-85
2023/10/15 08:14:05;;;;;;;3.50;1.85;;;;;;;13.16;48.82;99964.28;5044471;28;20503;-83
2023/10/15 08:16:49;;;;;;;5.65;1.60;;;;;;;12.84;49.19;99976.97;5044842;28;20043;-84
2023/10/15 08:19:33;;;;;;;3.60;1.67;;;;;;;14.01;48.81;99974.13;5047616;28;20101;-84
2023/10/15 08:22:17;;;;;;;1.98;1.60;;;;;;;13.98;48.35;99969.22;5054697;28;20044;-83
2023/10/15 08:25:02;;;;;;;5.57;1.75;;;;;;;13.80;47.94;99973.19;5050311;28;20182;-83
2023/10/15 08:27:46;;;;;;;5.50;1.80;;;;;;;13.67;48.57;99979.19;5054188;28;20159;-83
2023/10/15 08:30:32;;;;;;;3.25;1.55;;;;;;;13.88;48.10;99979.31;5059315;28;20557;-83
2023/10/15 08:33:17;;;;;;;2.40;1.55;;;;;;;14.05;47.74;99980.63;5054907;28;20464;-84
2023/10/15 08:36:02;;;;;;;3.70;1.70;;;;;;;13.13;48.52;99983.13;5034473;28;20406;-85
2023/10/15 08:38:46;;;;;;;6.45;2.05;;;;;;;14.19;48.19;99986.00;5035899;28;20144;-83
2023/10/15 08:41:30;;;;;;;4.28;1.70;;;;;;;13.34;48.26;99987.59;5045563;28;20072;-83
2023/10/15 08:44:18;;;;;;;3.08;1.45;;;;;;;14.12;48.11;99994.69;5046770;28;20047;-82
2023/10/15 08:47:04;;;;;;;5.68;1.70;;;;;;;14.23;47.47;99993.31;5038318;28;20040;-84
2023/10/15 08:49:51;;;;;;;7.43;1.70;;;;;;;13.90;47.75;99987.84;5036966;28;20530;-84
2023/10/15 08:52:38;;;;;;;1.80;1.50;;;;;;;14.27;47.67;99988.47;5041872;28;20098;-85
2023/10/15 08:55:23;;;;;;;2.17;1.50;;;;;;;14.43;47.13;99987.31;5040625;28;20510;-85
2023/10/15 08:58:09;;;;;;;4.72;1.88;;;;;;;14.79;47.69;99993.41;5044569;28;20059;-87
2023/10/15 09:00:57;;;;;;;2.40;1.42;;;;;;;14.78;47.88;99986.47;5040032;28;20051;-87
2023/10/15 09:03:41;;;;;;;7.13;1.80;;;;;;;14.49;48.37;100001.56;5037528;28;20039;-85
2023/10/15 09:06:26;;;;;;;3.17;1.40;;;;;;;14.18;48.29;99994.94;5039777;28;20037;-83
2023/10/15 09:09:10;;;;;;;2.80;1.40;;;;;;;14.17;47.35;99996.75;5049425;28;20505;-82
2023/10/15 09:11:54;;;;;;;2.97;1.40;;;;;;;14.80;47.31;100005.59;5038810;28;20056;-86
2023/10/15 09:14:47;;;;;;;5.28;2.15;;;;;;;15.21;47.46;100014.44;5045012;28;20094;-87
2023/10/15 09:17:31;;;;;;;4.05;1.55;;;;;;;15.25;46.31;100011.19;5046577;28;20036;-85
2023/10/15 09:20:26;;;;;;;1.58;1.40;;;;;;;15.50;45.98;100023.81;5041473;28;20036;-85
2023/10/15 09:23:10;;;;;;;3.80;1.70;;;;;;;15.71;45.32;100022.00;5047579;28;20116;-83
2023/10/15 09:25:55;;;;;;;4.43;1.42;;;;;;;16.54;45.06;100022.50;5048463;28;20056;-82
2023/10/15 09:28:39;;;;;;;2.65;1.95;;;;;;;16.33;44.90;100020.91;5041803;28;20128;-86
2023/10/15 09:31:25;;;;;;;2.25;1.38;;;;;;;16.30;45.10;100027.44;5041529;28;20040;-86
2023/10/15 09:34:11;;;;;;;2.65;1.52;;;;;;;15.73;45.36;100027.09;5040145;28;20040;-86
2023/10/15 09:36:58;;;;;;;3.20;1.40;;;;;;;14.96;46.00;100020.28;5041297;28;20064;-87
2023/10/15 09:39:43;;;;;;;3.75;1.48;;;;;;;15.41;46.33;100025.06;5039658;28;20090;-85
2023/10/15 09:42:33;;;;;;;3.90;1.73;;;;;;;15.50;45.95;100026.47;5036122;28;20116;-86
2023/10/15 09:45:18;;;;;;;3.22;1.55;;;;;;;15.24;45.38;100020.13;5044698;28;20493;-85
2023/10/15 09:48:03;;;;;;;1.77;1.25;;;;;;;15.65;45.25;100039.53;5039492;28;20036;-85
2023/10/15 09:50:47;;;;;;;1.95;1.30;;;;;;;15.64;44.73;100002.66;5041910;28;20394;-87
2023/10/15 09:53:34;;;;;;;2.28;1.50;;;;;;;15.35;44.68;100026.66;5040087;28;20044;-86
2023/10/15 09:56:20;;;;;;;1.35;1.30;;;;;;;15.68;44.63;100035.63;5042017;28;20504;-86
2023/10/15 09:59:04;;;;;;;1.90;1.40;;;;;;;15.64;45.15;100015.91;5047200;28;20098;-86
2023/10/15 10:01:53;;;;;;;2.35;1.50;;;;;;;16.26;44.36;100015.63;5037648;28;20088;-85
2023/10/15 10:05:05;;;;;;;1.60;1.50;;;;;;;16.01;44.88;100042.78;5040968;28;20048;-87
2023/10/15 10:08:01;;;;;;;1.52;1.30;;;;;;;16.13;45.17;100038.50;5040334;28;20036;-86
2023/10/15 10:11:00;;;;;;;1.98;1.50;;;;;;;16.93;43.87;100035.78;5041096;28;20040;-87
2023/10/15 10:13:54;;;;;;;2.90;1.30;;;;;;;17.08;43.94;100048.78;5043951;28;20044;-85
2023/10/15 10:16:41;;;;;;;1.73;1.23;;;;;;;16.90;43.99;100045.00;5043611;28;20066;-87
2023/10/15 10:19:27;;;;;;;4.88;2.65;;;;;;;16.38;43.67;100045.78;5043750;28;20499;-87
2023/10/15 10:22:29;;;;;;;10.32;4.90;;;;;;;16.11;43.76;100045.84;5035241;28;20040;-85
2023/10/15 10:25:48;;;;;;;16.05;7.45;;;;;;;16.40;43.01;100041.09;5045734;28;20124;-85
2023/10/15 10:28:36;;;;;;;19.58;9.93;;;;;;;16.85;43.68;100050.09;5040197;28;20096;-86
2023/10/15 10:31:21;;;;;;;25.17;11.18;;;;;;;17.33;43.33;100048.03;5043522;28;20051;-84
2023/10/15 10:34:05;;;;;;;14.50;7.97;;;;;;;16.40;44.33;100049.03;5046143;28;20049;-84
2023/10/15 10:36:56;;;;;;;18.60;10.43;;;;;;;17.17;43.87;100055.47;5046054;28;20548;-84
2023/10/15 10:39:43;;;;;;;16.42;8.85;;;;;;;17.51;43.66;100068.53;5041376;28;20044;-85
2023/10/15 10:42:29;;;;;;;8.70;4.60;;;;;;;16.68;44.08;100068.31;5042635;28;20040;-86
2023/10/15 10:45:52;;;;;;;7.20;3.30;;;;;;;16.22;44.80;100067.41;5039213;28;20514;-87
2023/10/15 10:48:38;;;;;;;3.70;3.03;;;;;;;16.49;45.08;100060.22;5045105;28;20043;-85
2023/10/15 10:51:30;;;;;;;3.05;2.22;;;;;;;17.61;43.82;100029.06;5042955;28;20102;-85
2023/10/15 10:54:15;;;;;;;2.47;1.60;;;;;;;18.09;43.81;100077.28;5040217;28;20098;-85
2023/10/15 10:57:07;;;;;;;1.50;1.40;;;;;;;17.76;43.80;100068.56;5040572;28;20121;-85
2023/10/15 10:59:52;;;;;;;3.97;1.50;;;;;;;17.78;43.61;100063.84;5039713;28;20044;-87
2023/10/15 11:02:37;;;;;;;4.25;1.77;;;;;;;17.86;43.90;100060.09;5037033;28;20045;-87
2023/10/15 11:05:21;;;;;;;3.15;1.60;;;;;;;17.09;44.63;100058.38;5039559;28;20082;-84
2023/10/15 11:08:17;;;;;;;3.15;1.92;;;;;;;17.36;44.40;100063.53;5043522;28;20072;-84
2023/10/15 11:11:01;;;;;;;2.17;1.70;;;;;;;17.65;44.45;100053.31;5046912;28;20055;-87
2023/10/15 11:13:46;;;;;;;2.42;1.60;;;;;;;17.10;44.41;100063.47;5041768;28;20129;-86
2023/10/15 11:16:36;;;;;;;1.50;1.20;;;;;;;17.26;44.77;100062.16;5044144;28;20039;-85
2023/10/15 11:19:26;;;;;;;2.90;1.30;;;;;;;16.81;45.13;100057.69;5040174;28;20076;-87
2023/10/15 11:22:14;;;;;;;3.38;1.50;;;;;;;17.36;45.96;100071.50;5038189;28;20060;-88
2023/10/15 11:24:58;;;;;;;4.15;1.70;;;;;;;17.24;45.47;100053.59;5038263;28;20056;-86
2023/10/15 11:27:42;;;;;;;3.88;1.30;;;;;;;17.36;45.53;100040.44;5037447;28;20040;-86
2023/10/15 11:30:26;;;;;;;2.13;1.45;;;;;;;17.40;46.22;100049.63;5043200;28;20509;-88
2023/10/15 11:33:12;;;;;;;2.65;1.50;;;;;;;17.32;46.19;100049.88;5039332;28;20106;-88
2023/10/15 11:35:57;;;;;;;6.90;1.67;;;;;;;17.30;45.63;100037.88;5042052;28;20044;-85
2023/10/15 11:38:43;;;;;;;3.85;1.52;;;;;;;18.38;45.52;100046.53;5040624;28;20096;-84
2023/10/15 11:41:30;;;;;;;3.83;1.70;;;;;;;18.45;45.58;100042.97;5039270;28;20575;-85
2023/10/15 11:44:15;;;;;;;3.50;1.60;;;;;;;18.16;45.10;100045.34;5041150;28;20044;-85
2023/10/15 11:47:08;;;;;;;3.17;1.50;;;;;;;17.60;46.27;100045.19;5042248;28;20560;-87
2023/10/15 11:49:54;;;;;;;2.38;1.48;;;;;;;18.08;45.35;100020.69;5041693;28;20055;-86
2023/10/15 11:52:49;;;;;;;2.47;1.38;;;;;;;18.17;45.33;100023.06;5040366;28;20044;-87
2023/10/15 11:55:34;;;;;;;3.13;1.52;;;;;;;19.19;44.41;100028.78;5036859;28;20037;-84
2023/10/15 11:58:23;;;;;;;1.83;1.30;;;;;;;18.01;44.53;100027.06;5043286;28;20111;-87
2023/10/15 12:01:10;;;;;;;2.15;1.33;;;;;;;18.51;43.98;100028.81;5040496;28;20059;-85
2023/10/15 12:03:57;;;;;;;2.55;1.48;;;;;;;18.08;44.86;100028.66;5039318;28;20091;-87
2023/10/15 12:06:43;;;;;;;14.90;7.38;;;;;;;17.65;45.36;100026.75;5035804;28;20202;-85
2023/10/15 12:09:27;;;;;;;13.18;6.00;;;;;;;18.15;45.14;100019.81;5042332;28;20104;-85
2023/10/15 12:12:15;;;;;;;8.98;5.30;;;;;;;18.84;44.73;100027.56;5046035;28;20098;-86
2023/10/15 12:14:59;;;;;;;4.57;3.00;;;;;;;17.56;45.75;100008.47;5033461;28;20064;-85
2023/10/15 12:17:44;;;;;;;4.13;1.60;;;;;;;17.58;45.64;100024.16;5039886;28;20095;-85
2023/10/15 12:20:29;;;;;;;2.03;1.60;;;;;;;17.44;46.67;99998.78;5043849;28;20047;-86
2023/10/15 12:23:12;;;;;;;5.32;3.08;;;;;;;18.39;45.79;100007.50;5036914;28;20486;-85
2023/10/15 12:25:56;;;;;;;3.42;1.70;;;;;;;17.61;46.25;100009.66;5033818;28;20053;-84
2023/10/15 12:28:46;;;;;;;2.60;1.50;;;;;;;17.75;46.25;99997.06;5038241;28;20043;-86
2023/10/15 12:31:30;;;;;;;2.70;1.63;;;;;;;18.01;46.28;100003.16;5031048;28;20036;-83
2023/10/15 12:34:14;;;;;;;2.35;1.50;;;;;;;18.39;45.79;100016.25;5036403;28;20128;-87
2023/10/15 12:36:58;;;;;;;1.88;1.40;;;;;;;17.77;46.76;100002.97;5038227;28;20052;-81
2023/10/15 12:39:46;;;;;;;3.08;1.90;;;;;;;17.25;47.27;100023.38;5038061;28;20041;-81
2023/10/15 12:42:34;;;;;;;4.65;3.05;;;;;;;18.22;47.17;100009.91;5035848;28;20581;-82
2023/10/15 12:45:19;;;;;;;3.80;1.60;;;;;;;17.69;47.72;100028.78;5034502;28;20063;-82
2023/10/15 12:48:05;;;;;;;3.70;1.95;;;;;;;18.21;47.94;100010.94;5034799;28;20048;-84
2023/10/15 12:50:50;;;;;;;5.32;2.00;;;;;;;17.19;48.16;100034.03;5043214;28;20425;-86
2023/10/15 12:53:34;;;;;;;4.55;2.38;;;;;;;17.79;47.02;100012.34;5039642;28;20047;-87
2023/10/15 12:56:18;;;;;;;2.05;1.60;;;;;;;18.20;47.95;99980.09;5042798;28;20044;-87
2023/10/15 12:59:03;;;;;;;2.58;1.85;;;;;;;18.29;48.18;100010.66;5047710;28;20087;-87
2023/10/15 13:01:47;;;;;;;5.15;1.92;;;;;;;18.17;48.61;100007.91;5039412;28;20040;-86
2023/10/15 13:04:31;;;;;;;4.53;1.95;;;;;;;18.39;47.98;99989.69;5042190;28;20032;-86
2023/10/15 13:07:16;;;;;;;6.35;1.60;;;;;;;18.57;47.86;99990.69;5036259;28;20056;-85
2023/10/15 13:10:04;;;;;;;3.90;1.95;;;;;;;18.33;48.74;100016.34;5037243;28;20036;-86
2023/10/15 13:12:50;;;;;;;3.47;1.90;;;;;;;18.54;48.08;100007.91;5041970;28;20056;-87